Time;durP1;ratioP1;P1;durP2;ratioP2;P2;SDS_P1;SDS_P2;PMS_P1;PMS_P2;Temp;Humidity;BMP_temperature;BMP_pressure;BME280_temperature;BME280_humidity;BME280_pressure;Samples;Min_cycle;Max_cycle;Signal;HPM_P1;HPM_P2
2022/01/26 00:07:03;;;;;;;62.78;30.98;;;4.90;75.40;;;-142.21;100.00;112049.66;6245202;23;20211;-75
2022/01/26 00:09:30;;;;;;;85.35;34.28;;;4.90;75.40;;;-142.21;100.00;112049.66;6243930;23;20236;-75
2022/01/26 00:12:00;;;;;;;100.38;38.13;;;5.00;75.00;;;-142.21;100.00;112049.66;6245470;23;20173;-76
2022/01/26 00:14:27;;;;;;;99.88;40.75;;;5.10;74.70;;;-142.21;100.00;112049.66;6244374;23;20173;-76
2022/01/26 00:16:55;;;;;;;74.55;35.05;;;5.10;74.60;;;-142.21;100.00;112049.66;6245069;23;20688;-76
2022/01/26 00:19:25;;;;;;;78.80;34.25;;;5.00;74.90;;;-142.21;100.00;112049.66;6244530;22;20177;-76
2022/01/26 00:21:55;;;;;;;89.50;36.08;;;4.90;75.40;;;-142.21;100.00;112049.66;6244988;23;20180;-76
2022/01/26 00:24:53;;;;;;;76.10;34.75;;;5.00;75.50;;;-142.21;100.00;112049.66;6244843;23;20223;-76
2022/01/26 00:39:15;;;;;;;61.03;30.35;;;5.00;75.20;;;-142.21;100.00;112049.66;6244901;23;20226;-76
2022/01/26 00:41:45;;;;;;;74.65;33.72;;;5.10;75.10;;;-142.21;100.00;112049.66;6244632;23;20179;-76
2022/01/26 00:44:14;;;;;;;87.05;35.17;;;5.00;75.10;;;-142.21;100.00;112049.66;6244864;23;20170;-75
2022/01/26 00:46:48;;;;;;;83.88;34.88;;;5.00;75.40;;;-142.21;100.00;112049.66;6244166;23;20181;-76
2022/01/26 00:49:17;;;;;;;86.50;34.53;;;5.00;75.70;;;-142.21;100.00;112049.66;6245040;23;20266;-75
2022/01/26 00:51:44;;;;;;;99.53;37.22;;;5.00;75.80;;;-142.21;100.00;112049.66;6245281;23;20173;-77
2022/01/26 00:54:11;;;;;;;84.57;34.75;;;4.90;76.30;;;-142.21;100.00;112049.66;6246169;23;20173;-74
2022/01/26 00:56:39;;;;;;;83.30;36.30;;;4.90;76.70;;;-142.21;100.00;112049.66;6245057;23;20247;-76
2022/01/26 00:59:08;;;;;;;83.70;34.90;;;4.90;76.50;;;-142.21;100.00;112049.66;6244641;23;20543;-77
2022/01/26 01:01:35;;;;;;;97.32;38.25;;;4.90;76.30;;;-142.21;100.00;112049.66;6250873;23;20619;-78
2022/01/26 01:04:03;;;;;;;89.15;37.22;;;4.90;76.30;;;-142.21;100.00;112049.66;6250786;23;20253;-76
2022/01/26 01:06:38;;;;;;;117.10;38.78;;;4.80;76.80;;;-142.21;100.00;112049.66;6247205;23;20625;-78
2022/01/26 01:09:06;;;;;;;95.18;36.38;;;4.80;77.20;;;-142.21;100.00;112049.66;6258301;23;20173;-78
2022/01/26 01:11:33;;;;;;;111.55;38.85;;;4.80;76.90;;;-142.21;100.00;112049.66;6258998;22;20204;-77
2022/01/26 01:14:00;;;;;;;91.28;36.35;;;4.90;76.80;;;-142.21;100.00;112049.66;6250953;23;20223;-76
2022/01/26 01:16:29;;;;;;;106.70;37.85;;;4.90;76.70;;;-142.21;100.00;112049.66;6246715;23;20280;-75
2022/01/26 01:19:03;;;;;;;94.90;37.10;;;4.90;76.90;;;-142.21;100.00;112049.66;6247186;23;20227;-75
2022/01/26 01:22:05;;;;;;;118.72;39.28;;;4.90;77.00;;;-142.21;100.00;112049.66;6246603;23;20173;-75
2022/01/26 01:24:57;;;;;;;109.70;36.78;;;4.80;77.90;;;-142.21;100.00;112049.66;6246748;23;20243;-76
2022/01/26 01:30:41;;;;;;;100.05;35.92;;;4.90;77.50;;;-142.21;100.00;112049.66;6243581;23;20618;-76
2022/01/26 01:33:15;;;;;;;82.75;36.67;;;4.90;77.30;;;-142.21;100.00;112049.66;6245412;23;20264;-74
2022/01/26 01:35:44;;;;;;;96.13;35.15;;;4.80;77.00;;;-142.21;100.00;112049.66;6246219;22;20519;-76
2022/01/26 01:38:15;;;;;;;131.18;41.53;;;4.80;77.20;;;-142.21;100.00;112049.66;6246968;23;20212;-75
2022/01/26 01:40:51;;;;;;;100.32;37.85;;;4.70;77.20;;;-142.21;100.00;112049.66;6246381;23;20173;-75
2022/01/26 01:43:21;;;;;;;106.53;36.80;;;4.90;77.60;;;-142.21;100.00;112049.66;6245660;23;20228;-75
2022/01/26 01:45:52;;;;;;;87.85;34.25;;;4.90;77.00;;;-142.21;100.00;112049.66;6246491;23;20215;-75
2022/01/26 01:48:31;;;;;;;96.65;36.15;;;5.00;76.90;;;-142.21;100.00;112049.66;6246467;23;20205;-76
2022/01/26 01:51:03;;;;;;;111.90;35.95;;;5.00;77.20;;;-142.21;100.00;112049.66;6246593;22;20203;-77
2022/01/26 01:53:35;;;;;;;112.35;36.45;;;4.90;77.20;;;-142.21;100.00;112049.66;6245860;23;20227;-74
2022/01/26 01:56:23;;;;;;;109.88;35.65;;;5.00;77.20;;;-142.21;100.00;112049.66;6246212;23;20181;-76
2022/01/26 01:58:51;;;;;;;85.40;33.67;;;5.10;77.10;;;-142.21;100.00;112049.66;6245474;23;20203;-75
2022/01/26 02:01:19;;;;;;;92.75;35.10;;;5.00;76.60;;;-142.21;100.00;112049.66;6247008;23;20169;-75
2022/01/26 02:03:47;;;;;;;85.30;33.75;;;4.90;76.30;;;-142.21;100.00;112049.66;6245257;23;20207;-77
2022/01/26 02:06:15;;;;;;;118.65;34.45;;;5.00;76.70;;;-142.21;100.00;112049.66;6246142;23;20236;-77
2022/01/26 02:08:43;;;;;;;124.97;37.60;;;5.00;76.00;;;-142.21;100.00;112049.66;6245775;23;20178;-77
2022/01/26 02:11:12;;;;;;;98.03;33.03;;;4.90;76.80;;;-142.21;100.00;112049.66;6246357;23;20228;-75
2022/01/26 02:13:48;;;;;;;82.43;31.80;;;4.80;76.90;;;-142.21;100.00;112049.66;6245473;23;20180;-77
2022/01/26 02:16:22;;;;;;;78.28;32.10;;;4.80;77.40;;;-142.21;100.00;112049.66;6246327;22;20189;-75
2022/01/26 02:19:17;;;;;;;84.82;32.35;;;4.80;76.90;;;-142.21;100.00;112049.66;6245746;23;20169;-75
2022/01/26 02:49:12;;;;;;;74.13;30.75;;;4.80;76.60;;;-142.21;100.00;112049.66;6245713;23;20173;-75
2022/01/26 02:52:35;;;;;;;138.93;34.78;;;4.90;76.40;;;-142.21;100.00;112049.66;6237021;23;20173;-75
2022/01/26 02:55:24;;;;;;;82.95;31.23;;;4.80;76.60;;;-142.21;100.00;112049.66;6244676;23;20200;-76
2022/01/26 02:58:22;;;;;;;96.65;32.67;;;4.90;76.80;;;-142.21;100.00;112049.66;6245820;23;20248;-75
2022/01/26 03:01:04;;;;;;;93.82;31.98;;;4.80;76.70;;;-142.21;100.00;112049.66;6246034;23;20173;-76
2022/01/26 03:03:37;;;;;;;89.75;33.65;;;4.80;76.60;;;-142.21;100.00;112049.66;6244785;23;20177;-76
2022/01/26 03:06:08;;;;;;;72.13;30.83;;;4.70;76.70;;;-142.21;100.00;112049.66;6245930;23;20598;-74
2022/01/26 03:08:40;;;;;;;65.82;29.23;;;4.70;76.60;;;-142.21;100.00;112049.66;6245042;23;20487;-75
2022/01/26 03:11:11;;;;;;;82.22;32.22;;;4.80;76.40;;;-142.21;100.00;112049.66;6245384;23;20209;-78
2022/01/26 03:13:44;;;;;;;90.97;32.58;;;4.80;76.70;;;-142.21;100.00;112049.66;6244977;23;20169;-75
2022/01/26 03:16:15;;;;;;;90.50;31.38;;;4.70;76.70;;;-142.21;100.00;112049.66;6245936;23;20185;-74
2022/01/26 03:18:55;;;;;;;71.57;31.08;;;4.70;76.60;;;-142.21;100.00;112049.66;6244651;22;20161;-74
2022/01/26 03:21:29;;;;;;;65.40;28.67;;;4.70;76.60;;;-142.21;100.00;112049.66;6245815;23;20177;-76
2022/01/26 03:29:41;;;;;;;47.78;25.23;;;4.80;76.20;;;-142.21;100.00;112049.66;6245878;23;20488;-75
2022/01/26 03:32:48;;;;;;;53.47;25.92;;;4.80;75.70;;;-142.21;100.00;112049.66;6245224;23;20547;-75
2022/01/26 03:35:19;;;;;;;55.70;25.63;;;4.80;75.50;;;-142.21;100.00;112049.66;6245489;23;20223;-75
2022/01/26 03:37:53;;;;;;;55.22;25.48;;;4.80;75.50;;;-142.21;100.00;112049.66;6192123;23;20173;-75
2022/01/26 03:40:29;;;;;;;54.78;25.95;;;4.90;75.10;;;-142.21;100.00;112049.66;6245191;23;20173;-75
2022/01/26 03:42:59;;;;;;;56.08;26.85;;;4.80;75.40;;;-142.21;100.00;112049.66;6244527;23;20538;-75
2022/01/26 03:45:28;;;;;;;59.15;25.58;;;4.70;75.10;;;-142.21;100.00;112049.66;6245729;23;20629;-76
2022/01/26 03:47:55;;;;;;;62.85;27.13;;;4.90;75.20;;;-142.21;100.00;112049.66;6244349;23;20266;-76
2022/01/26 03:50:24;;;;;;;51.45;26.08;;;4.90;75.30;;;-142.21;100.00;112049.66;6245259;23;20184;-75
2022/01/26 03:52:51;;;;;;;53.60;26.17;;;4.90;75.00;;;-142.21;100.00;112049.66;6244860;23;20181;-75
2022/01/26 03:55:19;;;;;;;54.03;25.98;;;5.10;75.10;;;-142.21;100.00;112049.66;6244965;23;20185;-76
2022/01/26 03:57:47;;;;;;;84.10;31.63;;;4.90;75.40;;;-142.21;100.00;112049.66;6245166;23;20189;-76
2022/01/26 04:00:17;;;;;;;58.15;26.63;;;5.00;75.40;;;-142.21;100.00;112049.66;6244577;23;20245;-76
2022/01/26 04:02:44;;;;;;;60.33;27.80;;;5.00;75.50;;;-142.21;100.00;112049.66;6244715;23;20180;-74
2022/01/26 04:05:12;;;;;;;53.40;26.67;;;5.00;75.40;;;-142.21;100.00;112049.66;6244331;23;20181;-76
2022/01/26 04:07:42;;;;;;;64.68;27.70;;;5.00;75.10;;;-142.21;100.00;112049.66;6244982;23;20173;-75
2022/01/26 04:10:18;;;;;;;64.57;29.35;;;5.00;75.10;;;-142.21;100.00;112049.66;6245107;23;20201;-76
2022/01/26 04:12:46;;;;;;;60.35;26.50;;;4.90;75.00;;;-142.21;100.00;112049.66;6245501;23;20183;-75
2022/01/26 04:15:24;;;;;;;52.70;25.92;;;4.70;75.50;;;-142.21;100.00;112049.66;6244769;23;20173;-76
2022/01/26 04:17:51;;;;;;;54.97;25.42;;;4.60;76.30;;;-142.21;100.00;112049.66;6245624;23;20198;-76
2022/01/26 04:20:20;;;;;;;62.80;25.98;;;4.60;76.20;;;-142.21;100.00;112049.66;6244005;23;20503;-76
2022/01/26 04:22:57;;;;;;;56.15;25.13;;;4.70;75.40;;;-142.21;100.00;112049.66;6245011;23;20499;-74
2022/01/26 04:25:26;;;;;;;55.80;25.40;;;4.80;75.00;;;-142.21;100.00;112049.66;6244452;23;20165;-76
2022/01/26 04:27:56;;;;;;;47.60;24.45;;;4.80;75.30;;;-142.21;100.00;112049.66;6244963;23;20196;-76
2022/01/26 04:30:25;;;;;;;43.35;23.48;;;4.70;74.90;;;-142.21;100.00;112049.66;6244478;23;20172;-76
2022/01/26 04:32:59;;;;;;;44.17;22.35;;;4.80;75.00;;;-142.21;100.00;112049.66;6244698;22;20177;-76
2022/01/26 04:35:26;;;;;;;35.95;20.52;;;4.70;75.40;;;-142.21;100.00;112049.66;6244943;23;20181;-75
2022/01/26 04:38:12;;;;;;;41.55;20.48;;;4.80;74.80;;;-142.21;100.00;112049.66;6245497;22;20180;-75
2022/01/26 04:40:48;;;;;;;44.47;22.23;;;4.80;74.60;;;-142.21;100.00;112049.66;6247344;23;20183;-74
2022/01/26 04:43:20;;;;;;;46.33;22.60;;;4.80;74.90;;;-142.21;100.00;112049.66;6248187;23;20172;-76
2022/01/26 04:45:49;;;;;;;40.63;21.90;;;4.80;75.10;;;-142.21;100.00;112049.66;6246825;22;20161;-75
2022/01/26 04:48:16;;;;;;;36.53;19.17;;;4.70;74.90;;;-142.21;100.00;112049.66;6247060;23;20193;-76
2022/01/26 04:50:43;;;;;;;38.13;19.88;;;4.80;74.80;;;-142.21;100.00;112049.66;6258051;23;20173;-76
2022/01/26 04:53:10;;;;;;;38.03;19.50;;;4.90;74.80;;;-142.21;100.00;112049.66;6261011;23;20529;-76
2022/01/26 04:55:37;;;;;;;40.13;19.75;;;4.70;74.70;;;-142.21;100.00;112049.66;6246865;23;20176;-76
2022/01/26 04:58:05;;;;;;;37.67;19.85;;;4.80;74.70;;;-142.21;100.00;112049.66;6258629;22;20192;-78
2022/01/26 05:00:32;;;;;;;32.22;18.42;;;4.80;74.40;;;-142.21;100.00;112049.66;6257727;23;20204;-78
2022/01/26 05:03:02;;;;;;;34.80;19.02;;;4.90;74.40;;;-142.21;100.00;112049.66;6253948;23;20181;-77
2022/01/26 05:05:29;;;;;;;35.15;19.40;;;4.90;74.20;;;-142.21;100.00;112049.66;6247056;23;20169;-76
2022/01/26 05:07:57;;;;;;;34.17;19.88;;;4.90;74.40;;;-142.21;100.00;112049.66;6246454;22;20177;-77
2022/01/26 05:10:25;;;;;;;31.75;18.80;;;4.90;74.80;;;-142.21;100.00;112049.66;6246999;23;20225;-77
2022/01/26 05:12:52;;;;;;;36.58;19.83;;;4.80;74.80;;;-142.21;100.00;112049.66;6246655;23;20229;-77
2022/01/26 05:15:23;;;;;;;35.28;19.55;;;4.80;74.80;;;-142.21;100.00;112049.66;6246328;23;20197;-75
2022/01/26 05:17:50;;;;;;;38.38;19.33;;;4.80;74.70;;;-142.21;100.00;112049.66;6246946;23;20487;-74
2022/01/26 05:20:19;;;;;;;36.85;19.35;;;4.80;74.90;;;-142.21;100.00;112049.66;6245947;23;20173;-77
2022/01/26 05:22:47;;;;;;;39.55;20.33;;;4.70;75.00;;;-142.21;100.00;112049.66;6246533;23;20241;-75
2022/01/26 05:25:16;;;;;;;44.05;21.20;;;4.70;75.10;;;-142.21;100.00;112049.66;6245811;23;20173;-75
2022/01/26 05:27:43;;;;;;;36.83;20.33;;;4.80;74.90;;;-142.21;100.00;112049.66;6246450;23;20519;-74
2022/01/26 05:30:11;;;;;;;51.42;25.35;;;4.70;74.60;;;-142.21;100.00;112049.66;6246743;23;20178;-76
2022/01/26 05:32:39;;;;;;;46.92;23.52;;;4.70;75.30;;;-142.21;100.00;112049.66;6246383;23;20170;-76
2022/01/26 05:35:07;;;;;;;46.35;23.65;;;4.50;75.20;;;-142.21;100.00;112049.66;6247063;23;20256;-74
2022/01/26 05:37:36;;;;;;;48.60;25.25;;;4.60;75.60;;;-142.21;100.00;112049.66;6246038;23;20658;-75
2022/01/26 05:40:05;;;;;;;52.13;23.17;;;4.60;75.50;;;-142.21;100.00;112049.66;6246662;23;20174;-76
2022/01/26 05:42:35;;;;;;;47.53;23.75;;;4.60;75.60;;;-142.21;100.00;112049.66;6246090;23;20177;-76
2022/01/26 05:45:05;;;;;;;46.70;22.92;;;4.60;75.20;;;-142.21;100.00;112049.66;6246478;23;20547;-76
2022/01/26 05:47:33;;;;;;;49.92;24.52;;;4.60;75.10;;;-142.21;100.00;112049.66;6246135;23;20162;-75
2022/01/26 05:50:01;;;;;;;57.35;23.83;;;4.60;75.30;;;-142.21;100.00;112049.66;6245359;23;20252;-75
2022/01/26 05:52:29;;;;;;;49.72;23.75;;;4.50;75.40;;;-142.21;100.00;112049.66;6246572;22;20174;-76
2022/01/26 05:54:58;;;;;;;45.38;23.25;;;4.60;75.40;;;-142.21;100.00;112049.66;6246066;22;20177;-75
2022/01/26 05:57:25;;;;;;;55.42;24.05;;;4.70;75.50;;;-142.21;100.00;112049.66;6246477;23;20496;-76
2022/01/26 05:59:54;;;;;;;44.88;21.90;;;4.60;75.50;;;-142.21;100.00;112049.66;6245390;22;20200;-74
2022/01/26 06:02:21;;;;;;;51.42;24.10;;;4.70;75.10;;;-142.21;100.00;112049.66;6246137;23;20193;-76
2022/01/26 06:04:49;;;;;;;48.20;23.38;;;4.70;75.20;;;-142.21;100.00;112049.66;6245488;23;20227;-80
2022/01/26 06:07:16;;;;;;;49.40;24.58;;;4.70;75.60;;;-142.21;100.00;112049.66;6246424;23;20181;-80
2022/01/26 06:09:43;;;;;;;55.85;25.25;;;4.70;75.60;;;-142.21;100.00;112049.66;6246059;22;20593;-74
2022/01/26 06:12:14;;;;;;;52.72;24.92;;;4.60;76.00;;;-142.21;100.00;112049.66;6246337;23;20231;-78
2022/01/26 06:14:42;;;;;;;64.95;26.02;;;4.70;75.70;;;-142.21;100.00;112049.66;6246407;22;20161;-80
2022/01/26 06:17:09;;;;;;;58.80;25.48;;;4.70;76.00;;;-142.21;100.00;112049.66;6245287;23;20233;-79
2022/01/26 06:19:36;;;;;;;55.58;25.80;;;4.60;76.20;;;-142.21;100.00;112049.66;6246218;22;20494;-79
2022/01/26 06:22:04;;;;;;;47.88;23.65;;;4.60;76.90;;;-142.21;100.00;112049.66;6245171;23;20228;-77
2022/01/26 06:24:31;;;;;;;61.85;27.55;;;4.70;77.00;;;-142.21;100.00;112049.66;6245752;23;20209;-76
2022/01/26 06:26:59;;;;;;;54.83;24.83;;;4.70;76.50;;;-142.21;100.00;112049.66;6245510;23;20169;-73
2022/01/26 06:29:30;;;;;;;55.00;26.52;;;4.80;76.10;;;-142.21;100.00;112049.66;6245990;23;20177;-76
2022/01/26 06:31:57;;;;;;;54.03;24.70;;;4.80;75.80;;;-142.21;100.00;112049.66;6246047;23;20200;-76
2022/01/26 06:34:25;;;;;;;65.60;27.52;;;4.80;75.70;;;-142.21;100.00;112049.66;6245264;23;20177;-77
2022/01/26 06:36:52;;;;;;;58.05;26.42;;;4.70;75.70;;;-142.21;100.00;112049.66;6245736;23;20209;-76
2022/01/26 06:39:19;;;;;;;55.47;25.63;;;4.70;75.80;;;-142.21;100.00;112049.66;6245057;22;20698;-77
2022/01/26 06:41:51;;;;;;;54.58;27.30;;;4.70;75.30;;;-142.21;100.00;112049.66;6246520;23;20485;-76
2022/01/26 06:44:23;;;;;;;53.35;25.98;;;4.70;75.80;;;-142.21;100.00;112049.66;6245423;23;20499;-74
2022/01/26 06:47:02;;;;;;;52.75;27.15;;;4.70;75.50;;;-142.21;100.00;112049.66;6245750;23;20165;-74
2022/01/26 06:49:32;;;;;;;53.72;27.77;;;4.70;75.00;;;-142.21;100.00;112049.66;6245239;23;20153;-74
2022/01/26 06:52:00;;;;;;;53.03;26.50;;;4.70;75.20;;;-142.21;100.00;112049.66;6245766;23;20217;-75
2022/01/26 06:54:27;;;;;;;48.70;25.70;;;4.70;75.40;;;-142.21;100.00;112049.66;6243802;23;20185;-75
2022/01/26 06:56:55;;;;;;;42.88;23.67;;;4.70;75.20;;;-142.21;100.00;112049.66;6245361;23;20201;-74
2022/01/26 06:59:25;;;;;;;44.88;25.35;;;4.70;75.00;;;-142.21;100.00;112049.66;6244297;22;20177;-74
2022/01/26 07:01:54;;;;;;;44.38;24.92;;;4.60;75.30;;;-142.21;100.00;112049.66;6245444;23;20256;-74
2022/01/26 07:04:21;;;;;;;44.25;23.98;;;4.70;75.30;;;-142.21;100.00;112049.66;6245094;23;20173;-78
2022/01/26 07:06:48;;;;;;;50.92;26.05;;;4.70;75.20;;;-142.21;100.00;112049.66;6245257;23;20177;-78
2022/01/26 07:09:17;;;;;;;50.95;27.05;;;4.70;75.20;;;-142.21;100.00;112049.66;6244876;23;20173;-79
2022/01/26 07:11:46;;;;;;;46.80;24.65;;;4.70;75.30;;;-142.21;100.00;112049.66;6244990;22;20219;-80
2022/01/26 07:14:23;;;;;;;50.00;26.50;;;4.70;75.70;;;-142.21;100.00;112049.66;6245358;23;20214;-79
2022/01/26 07:19:53;;;;;;;48.45;26.08;;;4.70;75.70;;;-142.21;100.00;112049.66;6217952;22;20178;-78
2022/01/26 07:22:20;;;;;;;48.80;27.45;;;4.60;75.70;;;-142.21;100.00;112049.66;6245076;23;20188;-78
2022/01/26 07:24:48;;;;;;;60.30;29.45;;;4.60;75.90;;;-142.21;100.00;112049.66;6244214;23;20252;-79
2022/01/26 07:27:15;;;;;;;51.85;28.08;;;4.70;76.00;;;-142.21;100.00;112049.66;6245212;23;20506;-75
2022/01/26 07:29:42;;;;;;;49.60;27.25;;;4.70;75.50;;;-142.21;100.00;112049.66;6244273;23;20185;-79
2022/01/26 07:32:10;;;;;;;53.88;27.23;;;4.70;75.40;;;-142.21;100.00;112049.66;6245101;23;20448;-79
2022/01/26 07:34:41;;;;;;;50.70;27.65;;;4.60;75.50;;;-142.21;100.00;112049.66;6243440;23;20589;-80
2022/01/26 07:37:10;;;;;;;53.65;28.08;;;4.60;75.70;;;-142.21;100.00;112049.66;6244784;23;20645;-79
2022/01/26 07:39:47;;;;;;;53.47;28.90;;;4.50;75.80;;;-142.21;100.00;112049.66;6245061;22;20162;-76
2022/01/26 07:42:15;;;;;;;51.50;25.90;;;4.40;76.20;;;-142.21;100.00;112049.66;6245492;23;20159;-81
2022/01/26 07:44:42;;;;;;;52.22;26.00;;;4.40;76.20;;;-142.21;100.00;112049.66;6245018;23;20506;-80
2022/01/26 07:47:11;;;;;;;43.22;23.23;;;4.50;76.20;;;-142.21;100.00;112049.66;6245054;23;20594;-79
2022/01/26 07:49:40;;;;;;;43.17;23.92;;;4.60;75.90;;;-142.21;100.00;112049.66;6245390;23;20220;-79
2022/01/26 07:52:08;;;;;;;43.67;24.02;;;4.50;75.80;;;-142.21;100.00;112049.66;6244303;23;20216;-79
2022/01/26 07:54:35;;;;;;;42.63;23.20;;;4.50;75.40;;;-142.21;100.00;112049.66;6244760;23;20252;-79
2022/01/26 07:57:03;;;;;;;41.20;22.75;;;4.60;75.50;;;-142.21;100.00;112049.66;6244122;23;20272;-79
2022/01/26 07:59:30;;;;;;;40.25;21.85;;;4.60;75.50;;;-142.21;100.00;112049.66;6244910;23;20563;-80
2022/01/26 08:01:57;;;;;;;42.75;22.08;;;4.60;75.40;;;-142.21;100.00;112049.66;6244980;22;20185;-79
2022/01/26 08:04:24;;;;;;;40.90;21.38;;;4.70;75.40;;;-142.21;100.00;112049.66;6244431;23;20229;-79
2022/01/26 08:06:53;;;;;;;49.58;24.52;;;4.70;75.10;;;-142.21;100.00;112049.66;6244705;23;20181;-78
2022/01/26 08:09:20;;;;;;;43.00;22.17;;;4.60;75.10;;;-142.21;100.00;112049.66;6243798;23;20303;-79
2022/01/26 08:11:48;;;;;;;39.20;21.02;;;4.50;75.20;;;-142.21;100.00;112049.66;6244331;23;20598;-80
2022/01/26 08:14:15;;;;;;;39.05;22.45;;;4.60;75.40;;;-142.21;100.00;112049.66;6243868;23;20553;-80
2022/01/26 08:16:43;;;;;;;42.08;22.83;;;4.60;75.20;;;-142.21;100.00;112049.66;6245261;23;20673;-80
2022/01/26 08:19:10;;;;;;;38.30;21.67;;;4.60;75.00;;;-142.21;100.00;112049.66;6245235;23;20247;-79
2022/01/26 08:21:37;;;;;;;41.08;21.83;;;4.60;74.70;;;-142.21;100.00;112049.66;6244382;23;20188;-80
2022/01/26 08:24:13;;;;;;;39.92;23.02;;;4.70;74.70;;;-142.21;100.00;112049.66;6244805;23;20641;-81
2022/01/26 08:26:45;;;;;;;43.78;23.20;;;4.60;74.80;;;-142.21;100.00;112049.66;6245066;23;20165;-79
2022/01/26 08:29:17;;;;;;;43.05;22.90;;;4.60;75.20;;;-142.21;100.00;112049.66;6245117;23;20154;-79
2022/01/26 08:31:44;;;;;;;45.30;23.60;;;4.60;74.60;;;-142.21;100.00;112049.66;6245203;23;20530;-79
2022/01/26 08:34:12;;;;;;;44.03;23.80;;;4.70;75.50;;;-142.21;100.00;112049.66;6245077;23;20173;-79
2022/01/26 08:36:39;;;;;;;37.55;22.35;;;4.70;75.10;;;-142.21;100.00;112049.66;6244629;23;20177;-78
2022/01/26 08:39:08;;;;;;;41.30;22.90;;;4.70;74.80;;;-142.21;100.00;112049.66;6258492;23;20181;-76
2022/01/26 08:41:36;;;;;;;41.13;23.60;;;4.70;75.00;;;-142.21;100.00;112049.66;6255670;22;20702;-81
2022/01/26 08:44:04;;;;;;;38.85;22.13;;;4.60;75.00;;;-142.21;100.00;112049.66;6248181;23;20181;-75
2022/01/26 08:46:31;;;;;;;36.15;21.67;;;4.50;75.20;;;-142.21;100.00;112049.66;6266268;22;20181;-75
2022/01/26 08:48:59;;;;;;;40.05;22.08;;;4.60;75.20;;;-142.21;100.00;112049.66;6268438;23;20181;-75
2022/01/26 08:51:26;;;;;;;36.53;21.67;;;4.60;74.80;;;-142.21;100.00;112049.66;6255611;23;20181;-80
2022/01/26 08:53:54;;;;;;;36.20;20.98;;;4.50;74.70;;;-142.21;100.00;112049.66;6244325;23;20227;-78
2022/01/26 08:56:22;;;;;;;34.70;21.00;;;4.50;74.60;;;-142.21;100.00;112049.66;6244834;22;20463;-79
2022/01/26 08:58:50;;;;;;;35.55;21.25;;;4.50;74.50;;;-142.21;100.00;112049.66;6243862;23;20204;-79
2022/01/26 09:01:17;;;;;;;33.30;19.55;;;4.60;74.50;;;-142.21;100.00;112049.66;6245171;23;20578;-80
2022/01/26 09:03:44;;;;;;;33.88;21.05;;;4.60;74.40;;;-142.21;100.00;112049.66;6244162;23;20231;-79
2022/01/26 09:06:12;;;;;;;39.70;21.52;;;4.50;74.10;;;-142.21;100.00;112049.66;6244697;23;20181;-79
2022/01/26 09:08:43;;;;;;;33.92;21.33;;;4.50;74.20;;;-142.21;100.00;112049.66;6243363;23;20185;-78
2022/01/26 09:11:11;;;;;;;34.47;21.15;;;4.50;74.70;;;-142.21;100.00;112049.66;6244558;23;20193;-79
2022/01/26 09:13:40;;;;;;;35.60;21.60;;;4.50;74.80;;;-142.21;100.00;112049.66;6244969;23;20201;-79
2022/01/26 09:16:09;;;;;;;32.00;20.70;;;4.50;74.60;;;-142.21;100.00;112049.66;6244107;23;20216;-79
2022/01/26 09:18:46;;;;;;;33.47;20.60;;;4.40;74.90;;;-142.21;100.00;112049.66;6244214;22;20198;-80
2022/01/26 09:21:13;;;;;;;35.10;21.60;;;4.40;74.90;;;-142.21;100.00;112049.66;6245470;23;20179;-80
2022/01/26 09:23:40;;;;;;;34.33;21.48;;;4.40;74.90;;;-142.21;100.00;112049.66;6245894;22;20495;-79
2022/01/26 09:26:07;;;;;;;33.17;21.90;;;4.30;75.00;;;-142.21;100.00;112049.66;6245660;23;20181;-80
2022/01/26 09:28:35;;;;;;;31.77;20.63;;;4.30;75.40;;;-142.21;100.00;112049.66;6246832;23;20536;-79
2022/01/26 09:31:04;;;;;;;31.52;20.33;;;4.20;75.60;;;-142.21;100.00;112049.66;6245949;23;20196;-79
2022/01/26 09:33:31;;;;;;;29.83;19.15;;;4.40;75.40;;;-142.21;100.00;112049.66;6246159;23;20227;-80
2022/01/26 09:35:59;;;;;;;28.67;18.95;;;4.40;75.00;;;-142.21;100.00;112049.66;6245937;23;20170;-78
2022/01/26 09:38:26;;;;;;;28.73;19.33;;;4.30;74.60;;;-142.21;100.00;112049.66;6246545;22;20196;-80
2022/01/26 09:40:53;;;;;;;26.90;17.92;;;4.40;74.50;;;-142.21;100.00;112049.66;6246169;23;20173;-80
2022/01/26 09:43:21;;;;;;;27.67;18.65;;;4.40;74.20;;;-142.21;100.00;112049.66;6245873;23;20182;-79
2022/01/26 09:45:49;;;;;;;28.15;17.95;;;4.50;74.10;;;-142.21;100.00;112049.66;6246520;23;20185;-80
2022/01/26 09:48:18;;;;;;;28.27;17.90;;;4.40;74.10;;;-142.21;100.00;112049.66;6245273;23;20177;-79
2022/01/26 09:50:47;;;;;;;26.73;18.75;;;4.50;73.60;;;-142.21;100.00;112049.66;6246531;23;20212;-79
2022/01/26 09:53:20;;;;;;;28.85;18.10;;;4.40;74.20;;;-142.21;100.00;112049.66;6245943;23;20180;-79
2022/01/26 09:55:47;;;;;;;26.13;16.60;;;4.50;74.20;;;-142.21;100.00;112049.66;6246624;23;20204;-78
2022/01/26 09:58:15;;;;;;;27.77;18.60;;;4.50;73.80;;;-142.21;100.00;112049.66;6245857;23;20197;-79
2022/01/26 10:00:45;;;;;;;27.48;17.60;;;4.60;73.60;;;-142.21;100.00;112049.66;6245909;23;20663;-79
2022/01/26 10:03:12;;;;;;;30.80;19.30;;;4.60;72.90;;;-142.21;100.00;112049.66;6246220;23;20173;-77
2022/01/26 10:05:43;;;;;;;30.98;19.85;;;4.60;73.20;;;-142.21;100.00;112049.66;6246670;23;20177;-80
2022/01/26 10:08:24;;;;;;;28.40;19.33;;;4.70;74.80;;;-142.21;100.00;112049.66;6246126;23;20603;-80
2022/01/26 10:19:20;;;;;;;29.85;17.65;;;4.80;74.30;;;-142.21;100.00;112049.66;6199655;22;20201;-80
2022/01/26 10:21:51;;;;;;;28.55;17.50;;;4.70;73.60;;;-142.21;100.00;112049.66;6245493;23;20211;-79
2022/01/26 10:24:25;;;;;;;28.90;17.35;;;4.70;73.50;;;-142.21;100.00;112049.66;6246244;23;20227;-79
2022/01/26 10:26:59;;;;;;;27.85;16.95;;;4.70;73.80;;;-142.21;100.00;112049.66;6246126;23;20162;-79
2022/01/26 10:29:29;;;;;;;27.77;17.17;;;4.70;73.50;;;-142.21;100.00;112049.66;6246452;23;20195;-79
2022/01/26 10:31:57;;;;;;;29.48;17.40;;;4.60;73.40;;;-142.21;100.00;112049.66;6245919;23;20215;-79
2022/01/26 10:34:25;;;;;;;31.30;19.08;;;4.60;73.60;;;-142.21;100.00;112049.66;6245414;22;20177;-79
2022/01/26 10:37:00;;;;;;;28.15;16.65;;;4.60;74.00;;;-142.21;100.00;112049.66;6245174;23;20177;-79
2022/01/26 10:39:33;;;;;;;29.77;17.50;;;4.70;74.50;;;-142.21;100.00;112049.66;6245701;23;20264;-79
2022/01/26 10:42:07;;;;;;;26.30;16.58;;;4.80;74.20;;;-142.21;100.00;112049.66;6246028;23;20545;-79
2022/01/26 10:44:41;;;;;;;28.83;18.55;;;4.80;73.90;;;-142.21;100.00;112049.66;6245597;23;20193;-79
2022/01/26 10:47:10;;;;;;;25.63;16.73;;;4.80;73.70;;;-142.21;100.00;112049.66;6245702;23;20169;-79
2022/01/26 10:49:56;;;;;;;27.70;16.40;;;4.90;73.40;;;-142.21;100.00;112049.66;6245688;22;20215;-80
2022/01/26 10:52:33;;;;;;;27.75;17.17;;;4.90;73.70;;;-142.21;100.00;112049.66;6246073;23;20177;-79
2022/01/26 10:55:01;;;;;;;24.10;16.20;;;4.80;73.40;;;-142.21;100.00;112049.66;6245063;23;20161;-78
2022/01/26 10:57:29;;;;;;;25.10;15.20;;;4.90;73.30;;;-142.21;100.00;112049.66;6245535;23;20180;-79
2022/01/26 10:59:56;;;;;;;24.90;15.73;;;4.90;73.10;;;-142.21;100.00;112049.66;6244496;22;20181;-79
2022/01/26 11:02:27;;;;;;;23.20;15.48;;;4.90;73.40;;;-142.21;100.00;112049.66;6245577;23;20181;-79
2022/01/26 11:04:54;;;;;;;22.90;15.55;;;5.00;72.60;;;-142.21;100.00;112049.66;6245331;23;20188;-78
2022/01/26 11:07:35;;;;;;;22.60;16.05;;;4.90;73.40;;;-142.21;100.00;112049.66;6245650;23;20491;-78